Time;durP1;ratioP1;P1;durP2;ratioP2;P2;SDS_P1;SDS_P2;PMS_P1;PMS_P2;Temp;Humidity;BMP_temperature;BMP_pressure;BME280_temperature;BME280_humidity;BME280_pressure;Samples;Min_cycle;Max_cycle;Signal;HPM_P1;HPM_P2
2022/11/02 00:00:47;;;;;;;582.40;545.87;;;8.70;38.90;;;;;;4992719;28;20429;-71
2022/11/02 00:03:12;;;;;;;705.83;659.70;;;8.60;38.20;;;;;;4992495;28;20477;-70
2022/11/02 00:05:38;;;;;;;286.43;266.13;;;8.60;37.90;;;;;;4993809;28;20268;-69
2022/11/02 00:08:03;;;;;;;349.83;325.23;;;8.70;37.30;;;;;;4993696;28;20602;-69
2022/11/02 00:10:29;;;;;;;241.80;223.00;;;8.80;36.50;;;;;;4992429;28;20176;-69
2022/11/02 00:12:55;;;;;;;253.23;234.87;;;8.70;37.00;;;;;;4993532;28;20192;-68
2022/11/02 00:15:23;;;;;;;543.37;505.90;;;8.80;37.20;;;;;;4993830;28;20191;-69
2022/11/02 00:17:52;;;;;;;164.77;151.20;;;8.90;36.90;;;;;;4993573;28;20450;-69
2022/11/02 00:20:19;;;;;;;457.87;425.27;;;9.00;36.30;;;;;;4993615;28;20782;-69
2022/11/02 00:22:46;;;;;;;768.43;716.30;;;9.00;35.40;;;;;;4993425;28;20433;-68
2022/11/02 00:25:16;;;;;;;443.50;411.00;;;9.10;35.50;;;;;;4993487;28;20489;-70
2022/11/02 00:27:42;;;;;;;244.47;225.10;;;9.10;35.40;;;;;;4993490;28;20417;-70
2022/11/02 00:30:09;;;;;;;779.70;728.50;;;9.10;34.60;;;;;;4993424;28;20414;-70
2022/11/02 00:32:35;;;;;;;686.43;641.47;;;9.10;34.00;;;;;;4991958;28;20932;-70
2022/11/02 00:35:00;;;;;;;183.40;168.50;;;9.00;34.50;;;;;;4993313;28;20436;-70
2022/11/02 00:37:26;;;;;;;502.93;470.47;;;8.90;34.60;;;;;;4993328;28;20421;-70
2022/11/02 00:39:51;;;;;;;510.87;476.40;;;8.80;34.60;;;;;;4993189;28;20269;-70
2022/11/02 00:42:17;;;;;;;226.00;209.77;;;8.70;34.80;;;;;;4991767;28;20186;-70
2022/11/02 00:44:43;;;;;;;470.67;440.00;;;8.70;35.50;;;;;;4993496;28;20222;-70
2022/11/02 00:47:10;;;;;;;417.90;389.90;;;8.60;35.20;;;;;;4993089;28;20182;-70
2022/11/02 00:49:36;;;;;;;385.27;359.93;;;8.50;35.90;;;;;;4992014;28;20199;-70
2022/11/02 00:52:01;;;;;;;553.83;516.70;;;8.50;35.90;;;;;;4992946;28;20419;-70
2022/11/02 00:54:27;;;;;;;305.50;285.13;;;8.40;36.20;;;;;;4993093;28;20182;-70
2022/11/02 00:56:52;;;;;;;596.83;558.33;;;8.40;36.80;;;;;;4992842;28;20258;-70
2022/11/02 00:59:18;;;;;;;652.67;614.87;;;8.30;36.80;;;;;;4992923;28;20195;-70
2022/11/02 01:01:46;;;;;;;439.23;411.27;;;8.30;37.00;;;;;;4992885;28;20703;-70
2022/11/02 01:04:13;;;;;;;400.30;373.67;;;8.20;37.50;;;;;;4993004;28;20203;-70
2022/11/02 01:06:39;;;;;;;293.13;272.20;;;8.20;37.50;;;;;;4992977;28;20445;-70
2022/11/02 01:09:05;;;;;;;420.00;392.03;;;8.20;37.50;;;;;;4992230;28;20977;-70
2022/11/02 01:11:30;;;;;;;381.87;355.60;;;8.20;37.50;;;;;;4992945;28;20476;-70
2022/11/02 01:13:56;;;;;;;589.10;550.50;;;8.10;38.10;;;;;;4992594;28;20179;-71
2022/11/02 01:16:21;;;;;;;392.13;366.83;;;8.10;37.90;;;;;;4992833;28;20183;-71
2022/11/02 01:18:51;;;;;;;425.80;397.53;;;8.00;38.50;;;;;;4992796;28;20199;-70
2022/11/02 01:21:17;;;;;;;326.17;304.67;;;8.00;38.40;;;;;;4992813;28;20260;-70
2022/11/02 01:23:42;;;;;;;255.87;236.40;;;8.00;39.40;;;;;;4992553;28;20488;-70
2022/11/02 01:26:08;;;;;;;601.73;562.97;;;8.00;39.70;;;;;;4991677;28;20176;-69
2022/11/02 01:28:35;;;;;;;379.30;353.40;;;8.00;39.80;;;;;;4993354;28;20203;-69
2022/11/02 01:31:01;;;;;;;789.13;738.07;;;8.10;39.50;;;;;;4992681;28;20408;-70
2022/11/02 01:33:27;;;;;;;780.57;728.03;;;8.10;39.50;;;;;;4991260;28;20432;-71
2022/11/02 01:35:53;;;;;;;406.73;376.87;;;8.10;39.10;;;;;;4992586;28;20918;-69
2022/11/02 01:38:19;;;;;;;436.80;409.03;;;8.20;39.30;;;;;;4992552;28;20451;-70
2022/11/02 01:40:45;;;;;;;457.03;428.27;;;8.10;38.70;;;;;;4992533;28;20430;-70
2022/11/02 01:43:31;;;;;;;237.70;220.93;;;8.10;38.40;;;;;;4992757;28;20417;-70
2022/11/02 01:46:09;;;;;;;418.77;390.17;;;8.20;38.00;;;;;;4992572;28;20888;-70
2022/11/02 01:49:02;;;;;;;249.33;231.47;;;8.20;37.60;;;;;;4992418;28;20418;-70
2022/11/02 01:51:34;;;;;;;469.77;437.73;;;8.10;37.70;;;;;;4991892;28;20418;-70
2022/11/02 01:54:05;;;;;;;291.93;271.93;;;8.20;37.40;;;;;;4992473;28;20410;-70
2022/11/02 01:56:32;;;;;;;660.77;619.43;;;8.30;37.40;;;;;;4992711;28;20928;-70
2022/11/02 01:59:01;;;;;;;316.87;295.27;;;8.30;36.60;;;;;;4992330;28;20464;-70
2022/11/02 02:01:28;;;;;;;421.53;394.03;;;8.30;36.30;;;;;;4992313;28;20755;-70
2022/11/02 02:03:56;;;;;;;385.40;359.43;;;8.40;35.80;;;;;;4992139;28;20454;-70
2022/11/02 02:06:24;;;;;;;734.40;685.43;;;8.40;35.30;;;;;;4992286;28;20457;-70
2022/11/02 02:08:52;;;;;;;539.57;506.43;;;8.40;35.30;;;;;;4990972;28;20488;-70
2022/11/02 02:11:27;;;;;;;305.33;283.37;;;8.40;35.70;;;;;;4992210;28;20418;-69
2022/11/02 02:13:56;;;;;;;330.30;307.27;;;8.40;35.20;;;;;;4992492;28;20418;-70
2022/11/02 02:16:48;;;;;;;534.43;501.27;;;8.40;35.00;;;;;;4992327;28;20424;-71
2022/11/02 02:19:42;;;;;;;610.17;569.33;;;8.30;35.00;;;;;;4992891;28;20433;-70
2022/11/02 02:22:19;;;;;;;405.73;382.13;;;8.30;35.60;;;;;;4994392;28;20418;-70
2022/11/02 02:24:51;;;;;;;370.03;344.53;;;8.30;35.70;;;;;;4996260;28;20817;-71
2022/11/02 02:27:55;;;;;;;578.37;541.37;;;8.20;35.70;;;;;;4996934;28;20485;-71
2022/11/02 02:30:22;;;;;;;429.03;401.80;;;8.30;35.70;;;;;;4996240;28;20433;-71
2022/11/02 02:32:55;;;;;;;447.40;419.57;;;8.30;35.70;;;;;;4995813;28;20426;-70
2022/11/02 02:36:01;;;;;;;483.87;453.07;;;8.30;35.70;;;;;;4996602;28;20431;-71
2022/11/02 02:38:34;;;;;;;326.13;303.87;;;8.30;35.70;;;;;;4995996;28;20529;-71
2022/11/02 02:41:22;;;;;;;474.87;442.43;;;8.30;35.70;;;;;;4996706;28;20786;-71
2022/11/02 02:43:51;;;;;;;594.07;558.20;;;8.30;35.70;;;;;;4996545;28;20469;-70
2022/11/02 02:46:35;;;;;;;324.87;303.57;;;8.30;35.90;;;;;;4995659;28;20423;-72
2022/11/02 02:49:03;;;;;;;393.07;367.27;;;8.30;35.70;;;;;;4994095;28;20813;-70
2022/11/02 02:51:31;;;;;;;451.60;422.10;;;8.40;35.50;;;;;;4995566;28;20460;-71
2022/11/02 02:54:05;;;;;;;402.53;378.13;;;8.40;35.20;;;;;;4995416;28;20426;-71
2022/11/02 02:56:38;;;;;;;360.13;336.07;;;8.40;35.00;;;;;;4995594;28;20827;-69
2022/11/02 02:59:06;;;;;;;452.17;425.90;;;8.50;34.40;;;;;;4997036;28;20813;-70
2022/11/02 03:01:33;;;;;;;491.37;458.87;;;8.50;34.50;;;;;;4996517;28;20438;-70
2022/11/02 03:03:59;;;;;;;486.70;454.70;;;8.50;34.50;;;;;;4996258;28;20459;-71
2022/11/02 03:06:31;;;;;;;361.27;338.13;;;8.50;34.10;;;;;;4995270;28;20433;-71
2022/11/02 03:09:03;;;;;;;344.40;322.07;;;8.50;33.80;;;;;;4995520;28;20200;-71
2022/11/02 03:11:32;;;;;;;307.03;287.57;;;8.50;34.00;;;;;;4995179;28;20418;-71
2022/11/02 03:14:30;;;;;;;507.20;475.13;;;8.50;33.90;;;;;;4994978;28;20786;-71
2022/11/02 03:17:07;;;;;;;490.00;458.07;;;8.60;33.80;;;;;;4993632;28;20438;-72
2022/11/02 03:19:47;;;;;;;151.37;139.07;;;8.60;33.50;;;;;;4995279;28;20442;-70
2022/11/02 03:22:18;;;;;;;559.50;523.10;;;8.60;33.30;;;;;;4995022;28;20478;-71
2022/11/02 03:25:13;;;;;;;274.13;255.13;;;8.50;33.20;;;;;;4993891;28;20559;-71
2022/11/02 03:27:55;;;;;;;287.90;268.00;;;8.50;33.50;;;;;;4994969;28;20817;-71
2022/11/02 03:30:23;;;;;;;299.00;279.70;;;8.50;33.60;;;;;;4994675;28;20498;-71
2022/11/02 03:33:17;;;;;;;436.80;408.60;;;8.50;33.60;;;;;;4993910;28;20430;-70
2022/11/02 03:36:04;;;;;;;480.67;449.27;;;8.50;33.70;;;;;;4994088;28;20426;-69
2022/11/02 03:38:36;;;;;;;370.37;344.17;;;8.50;33.50;;;;;;5021444;23;20493;-74
2022/11/02 03:41:04;;;;;;;389.30;365.53;;;8.50;33.70;;;;;;5013859;28;20418;-73
2022/11/02 03:43:34;;;;;;;445.37;415.57;;;8.50;33.50;;;;;;5013420;28;20807;-73
2022/11/02 03:46:02;;;;;;;476.33;445.97;;;8.50;33.50;;;;;;5013795;28;20485;-73
2022/11/02 03:48:31;;;;;;;337.40;315.43;;;8.60;33.70;;;;;;5013589;28;20942;-73
2022/11/02 03:50:59;;;;;;;612.50;573.17;;;8.60;33.60;;;;;;5013722;28;20405;-73
2022/11/02 03:53:27;;;;;;;352.00;328.13;;;8.60;33.30;;;;;;5013521;28;20448;-73
2022/11/02 03:55:58;;;;;;;356.50;333.07;;;8.70;33.20;;;;;;5013466;28;20537;-73
2022/11/02 03:58:24;;;;;;;256.13;238.10;;;8.70;33.00;;;;;;5013498;28;20435;-73
2022/11/02 04:00:54;;;;;;;588.77;551.40;;;8.70;33.00;;;;;;5013471;28;20887;-73
2022/11/02 04:03:22;;;;;;;369.60;346.30;;;8.70;32.20;;;;;;5013226;28;20187;-73
2022/11/02 04:05:48;;;;;;;323.23;300.53;;;8.70;31.60;;;;;;5013396;28;20830;-73
2022/11/02 04:08:20;;;;;;;520.53;487.30;;;8.70;31.20;;;;;;5013218;28;20430;-73
2022/11/02 04:16:15;;;;;;;258.00;239.93;;;8.70;30.80;;;;;;5013451;28;20449;-74
2022/11/02 04:21:26;;;;;;;271.37;253.50;;;8.80;30.90;;;;;;5014361;28;20421;-73
2022/11/02 04:26:36;;;;;;;444.23;415.63;;;8.90;30.70;;;;;;5013840;28;20949;-73
2022/11/02 04:29:02;;;;;;;576.00;538.97;;;8.90;30.10;;;;;;5013712;28;20439;-74
2022/11/02 04:31:28;;;;;;;286.30;265.97;;;9.00;30.30;;;;;;5013629;28;20254;-74
2022/11/02 04:33:54;;;;;;;329.33;306.20;;;9.00;30.00;;;;;;5013606;28;20453;-74
2022/11/02 04:36:20;;;;;;;511.00;478.87;;;9.00;30.10;;;;;;5013021;28;20421;-73
2022/11/02 04:38:45;;;;;;;364.03;339.93;;;9.10;29.50;;;;;;5012512;28;20214;-73
2022/11/02 04:44:01;;;;;;;283.17;263.83;;;9.10;29.50;;;;;;5013069;28;20684;-74
2022/11/02 04:46:29;;;;;;;171.43;156.67;;;9.10;29.20;;;;;;5012777;28;20410;-74
2022/11/02 04:48:55;;;;;;;519.67;485.53;;;9.20;29.10;;;;;;5012538;28;20438;-74
2022/11/02 04:51:22;;;;;;;744.90;699.70;;;9.20;28.80;;;;;;5012630;28;20414;-74
2022/11/02 04:53:48;;;;;;;449.83;421.10;;;9.20;28.40;;;;;;5012354;28;20774;-73
2022/11/02 04:56:14;;;;;;;160.90;147.50;;;9.20;28.70;;;;;;5011134;28;20431;-73
2022/11/02 04:58:40;;;;;;;609.13;570.73;;;9.10;29.10;;;;;;5012801;28;20493;-73
2022/11/02 05:01:16;;;;;;;408.27;380.23;;;9.10;29.00;;;;;;5011307;28;20791;-73
2022/11/02 05:03:42;;;;;;;746.00;701.70;;;9.10;29.20;;;;;;5012174;28;20409;-71
2022/11/02 05:06:11;;;;;;;705.40;662.10;;;9.10;29.00;;;;;;5006478;28;20923;-72
2022/11/02 05:08:37;;;;;;;340.47;317.33;;;9.00;29.00;;;;;;5003800;28;21055;-72
2022/11/02 05:11:03;;;;;;;669.67;628.53;;;9.00;29.30;;;;;;5012430;28;20410;-72
2022/11/02 05:13:29;;;;;;;585.07;550.30;;;8.90;29.20;;;;;;5011932;28;20813;-72
2022/11/02 05:15:56;;;;;;;577.53;541.20;;;8.80;29.70;;;;;;5012187;28;20426;-73
2022/11/02 05:18:22;;;;;;;628.50;592.13;;;8.60;30.70;;;;;;5012164;28;20194;-73
2022/11/02 05:20:56;;;;;;;536.33;504.40;;;8.40;30.50;;;;;;5012217;28;20418;-73
2022/11/02 05:23:22;;;;;;;290.73;269.90;;;8.30;32.00;;;;;;5012065;28;20804;-73
2022/11/02 05:25:58;;;;;;;641.73;604.07;;;8.30;32.90;;;;;;5012203;28;20864;-73
2022/11/02 05:28:24;;;;;;;502.20;473.67;;;8.30;32.20;;;;;;5012062;28;20829;-73
2022/11/02 05:30:50;;;;;;;563.40;528.10;;;8.20;32.90;;;;;;5010920;28;20432;-73
2022/11/02 05:33:16;;;;;;;664.00;623.87;;;8.00;33.70;;;;;;5010631;28;20922;-73
2022/11/02 05:35:41;;;;;;;589.03;554.57;;;8.00;33.70;;;;;;5012044;28;20659;-73
2022/11/02 05:38:07;;;;;;;536.23;505.17;;;7.90;34.40;;;;;;5011882;28;20426;-73
2022/11/02 05:40:33;;;;;;;516.50;486.07;;;7.80;35.30;;;;;;5012132;28;20660;-73
2022/11/02 05:42:59;;;;;;;557.03;524.47;;;7.80;35.90;;;;;;5011623;28;20965;-73
2022/11/02 05:45:25;;;;;;;618.90;583.33;;;7.70;36.60;;;;;;5010559;28;20210;-73
2022/11/02 05:47:51;;;;;;;676.80;635.63;;;7.60;37.20;;;;;;5011916;28;20465;-73
2022/11/02 05:50:17;;;;;;;429.87;401.50;;;7.60;38.10;;;;;;5011798;28;20201;-73
2022/11/02 05:52:43;;;;;;;666.03;621.80;;;7.70;37.30;;;;;;5011691;28;20648;-73
2022/11/02 05:55:09;;;;;;;662.70;621.87;;;7.80;36.90;;;;;;5014061;28;20427;-73
2022/11/02 05:57:34;;;;;;;657.70;618.90;;;7.80;36.40;;;;;;5015542;28;20264;-73
2022/11/02 06:00:00;;;;;;;499.00;469.40;;;7.70;36.40;;;;;;5015646;28;20271;-73
2022/11/02 06:02:25;;;;;;;649.53;609.57;;;7.70;37.60;;;;;;5014163;28;20186;-72
2022/11/02 06:04:51;;;;;;;711.03;665.83;;;7.60;37.80;;;;;;5014201;28;20206;-71
2022/11/02 06:07:16;;;;;;;626.30;584.87;;;7.50;38.10;;;;;;5015600;28;20177;-72
2022/11/02 06:09:42;;;;;;;717.63;673.40;;;7.50;39.30;;;;;;5015437;28;20325;-71
2022/11/02 06:12:07;;;;;;;736.13;689.30;;;7.60;39.70;;;;;;5016157;28;20174;-72
2022/11/02 06:14:33;;;;;;;691.23;649.20;;;7.70;38.70;;;;;;5015445;28;20189;-72
2022/11/02 06:16:59;;;;;;;551.10;514.37;;;7.60;38.00;;;;;;5015416;28;20187;-72
2022/11/02 06:19:24;;;;;;;497.53;465.97;;;7.60;39.20;;;;;;5015201;28;20290;-72
2022/11/02 06:21:50;;;;;;;441.80;412.93;;;7.70;38.90;;;;;;5015050;28;20182;-72
2022/11/02 06:24:15;;;;;;;623.83;587.73;;;7.70;39.50;;;;;;5015163;28;20205;-71
2022/11/02 06:26:41;;;;;;;244.57;226.97;;;7.70;39.20;;;;;;5013878;28;20216;-71
2022/11/02 06:29:07;;;;;;;582.07;544.50;;;7.80;39.50;;;;;;5014644;28;20283;-72
2022/11/02 06:31:32;;;;;;;404.07;376.73;;;7.90;38.70;;;;;;5015384;28;20554;-72
2022/11/02 06:33:58;;;;;;;469.17;438.07;;;7.90;37.80;;;;;;5014811;28;20183;-73
2022/11/02 06:36:24;;;;;;;703.83;658.73;;;8.00;38.50;;;;;;5015080;28;20189;-73
2022/11/02 06:38:50;;;;;;;397.90;373.03;;;8.00;37.90;;;;;;5014886;28;20236;-73
2022/11/02 06:41:15;;;;;;;345.13;320.97;;;8.00;37.30;;;;;;5014866;28;20207;-73
2022/11/02 06:43:41;;;;;;;622.90;583.87;;;8.10;37.00;;;;;;5014577;28;20414;-73
2022/11/02 06:46:07;;;;;;;797.17;744.97;;;8.20;36.90;;;;;;5014834;28;20205;-73
2022/11/02 06:48:32;;;;;;;387.33;359.80;;;8.40;37.10;;;;;;5014749;28;20199;-72
2022/11/02 06:50:58;;;;;;;419.20;391.17;;;8.70;35.00;;;;;;5014795;28;20176;-73
2022/11/02 06:53:23;;;;;;;353.10;330.17;;;8.90;32.60;;;;;;5014420;28;20190;-73
2022/11/02 06:55:53;;;;;;;184.20;168.40;;;9.10;31.80;;;;;;5014511;28;20180;-73
2022/11/02 06:58:21;;;;;;;332.43;307.47;;;9.30;31.90;;;;;;5014635;28;20176;-73
2022/11/02 07:00:46;;;;;;;231.47;212.03;;;9.60;30.10;;;;;;5014437;28;20418;-73
2022/11/02 07:03:12;;;;;;;299.50;276.13;;;9.90;28.90;;;;;;5014270;28;20576;-73
2022/11/02 07:05:37;;;;;;;527.60;490.20;;;10.20;26.90;;;;;;5012177;28;20619;-73
2022/11/02 07:08:04;;;;;;;491.63;457.43;;;10.30;26.90;;;;;;5014230;28;20551;-73
2022/11/02 07:10:30;;;;;;;348.73;323.83;;;10.40;26.40;;;;;;5014255;28;20168;-73
2022/11/02 07:12:56;;;;;;;419.90;390.80;;;10.40;25.90;;;;;;5014197;28;20766;-73
2022/11/02 07:15:24;;;;;;;733.77;686.33;;;10.50;25.90;;;;;;5014578;28;20443;-73
2022/11/02 07:17:49;;;;;;;767.43;718.50;;;10.60;25.50;;;;;;5014193;28;20419;-74
2022/11/02 07:20:16;;;;;;;679.97;635.17;;;10.80;25.80;;;;;;5014102;28;20443;-74
2022/11/02 07:22:42;;;;;;;387.73;359.97;;;11.00;25.40;;;;;;5013991;28;20186;-73
2022/11/02 07:25:07;;;;;;;710.43;663.37;;;11.30;24.40;;;;;;5014581;28;20458;-74
2022/11/02 07:27:39;;;;;;;828.37;772.07;;;11.50;23.60;;;;;;5014259;28;20202;-72
2022/11/02 07:30:06;;;;;;;790.60;736.63;;;11.70;23.20;;;;;;5014075;28;20754;-72
2022/11/02 07:32:39;;;;;;;141.17;128.00;;;11.90;22.80;;;;;;5014360;28;20435;-71
2022/11/02 07:35:05;;;;;;;262.67;242.03;;;12.10;21.50;;;;;;5014169;28;20496;-72
2022/11/02 07:37:31;;;;;;;528.37;491.00;;;12.30;21.10;;;;;;5013838;28;20484;-72
2022/11/02 07:39:56;;;;;;;570.37;528.13;;;12.40;20.00;;;;;;5013944;28;20460;-72
2022/11/02 07:42:22;;;;;;;421.83;388.97;;;12.40;19.70;;;;;;5013601;28;20194;-73
2022/11/02 07:44:47;;;;;;;552.17;511.17;;;12.40;19.30;;;;;;5013749;28;20608;-71
2022/11/02 07:47:13;;;;;;;439.23;406.07;;;12.60;19.10;;;;;;5013681;28;20168;-72
2022/11/02 07:49:38;;;;;;;596.00;552.43;;;12.80;18.20;;;;;;5013716;28;20224;-71
2022/11/02 07:52:04;;;;;;;600.63;558.87;;;12.80;17.80;;;;;;4997021;28;20265;-70
2022/11/02 07:54:29;;;;;;;481.27;445.13;;;12.90;17.40;;;;;;4990305;28;20330;-71
2022/11/02 07:56:55;;;;;;;93.50;83.30;;;13.00;16.60;;;;;;4996395;28;20197;-71
2022/11/02 07:59:21;;;;;;;546.07;506.10;;;13.10;16.20;;;;;;5000829;28;20217;-71
2022/11/02 08:01:46;;;;;;;590.00;545.57;;;13.20;16.30;;;;;;5009171;28;20187;-71
2022/11/02 08:04:12;;;;;;;607.17;563.53;;;13.10;15.60;;;;;;4988165;28;20747;-71
2022/11/02 08:06:37;;;;;;;700.00;647.40;;;13.00;16.10;;;;;;4991210;28;20195;-78
2022/11/02 08:09:03;;;;;;;882.87;814.73;;;12.80;16.00;;;;;;4989619;28;20216;-71
2022/11/02 08:11:29;;;;;;;282.80;260.97;;;12.90;16.10;;;;;;4993445;28;20211;-70
2022/11/02 08:13:54;;;;;;;662.33;612.57;;;13.20;16.30;;;;;;5008930;28;20234;-70
2022/11/02 08:16:20;;;;;;;518.27;480.43;;;13.30;15.50;;;;;;4992552;28;20445;-70
2022/11/02 08:18:46;;;;;;;350.93;323.43;;;13.50;15.90;;;;;;4989079;28;20206;-70
2022/11/02 08:21:11;;;;;;;625.33;579.37;;;13.60;15.20;;;;;;4989582;28;20188;-71
2022/11/02 08:23:37;;;;;;;662.00;612.67;;;13.80;14.60;;;;;;4989797;28;20246;-70
2022/11/02 08:26:02;;;;;;;430.30;396.43;;;14.10;14.60;;;;;;5002832;28;20594;-71
2022/11/02 08:28:31;;;;;;;857.90;791.43;;;14.40;14.20;;;;;;5007562;28;20196;-70
2022/11/02 08:30:58;;;;;;;895.83;829.27;;;14.40;13.60;;;;;;4993805;28;20184;-71
2022/11/02 08:33:23;;;;;;;424.70;392.23;;;14.40;13.80;;;;;;4987078;28;20458;-73
2022/11/02 08:35:49;;;;;;;495.93;458.40;;;14.50;13.30;;;;;;5002924;28;20467;-71
2022/11/02 08:38:16;;;;;;;880.97;811.13;;;14.70;12.90;;;;;;5012749;28;20168;-68
2022/11/02 08:40:42;;;;;;;344.77;317.70;;;14.90;13.00;;;;;;5012888;28;20226;-71
2022/11/02 08:43:12;;;;;;;517.23;480.10;;;15.00;12.60;;;;;;4999868;28;20777;-71
2022/11/02 08:45:40;;;;;;;730.23;672.43;;;15.30;12.20;;;;;;5012971;28;20458;-71
2022/11/02 08:48:06;;;;;;;802.37;738.33;;;15.40;11.70;;;;;;5003779;28;20409;-71
2022/11/02 08:50:32;;;;;;;771.03;713.93;;;15.20;12.20;;;;;;4993178;28;20408;-71
2022/11/02 08:52:57;;;;;;;860.13;795.10;;;15.20;12.60;;;;;;4997628;28;20427;-71
2022/11/02 08:55:23;;;;;;;442.43;409.33;;;15.10;12.30;;;;;;5006557;28;20450;-71
2022/11/02 08:57:52;;;;;;;363.30;335.53;;;15.10;12.80;;;;;;5012655;28;20680;-71
2022/11/02 09:00:20;;;;;;;955.70;877.23;;;15.20;12.50;;;;;;5012964;28;20446;-71
2022/11/02 09:02:58;;;;;;;757.73;698.80;;;15.30;12.70;;;;;;5011755;28;20427;-71
2022/11/02 09:05:24;;;;;;;667.57;618.50;;;15.20;12.50;;;;;;5012760;28;20608;-71
2022/11/02 09:07:57;;;;;;;653.13;603.07;;;15.30;12.00;;;;;;5009170;28;20992;-71
2022/11/02 09:10:23;;;;;;;436.57;404.50;;;15.30;12.30;;;;;;4992681;28;20677;-71
2022/11/02 09:12:49;;;;;;;381.07;352.23;;;15.30;12.30;;;;;;4992450;28;20485;-71
2022/11/02 09:15:14;;;;;;;658.33;610.37;;;15.30;13.30;;;;;;4992642;28;20180;-71
2022/11/02 09:17:40;;;;;;;722.67;669.93;;;15.70;12.60;;;;;;4992818;28;20208;-71
2022/11/02 09:20:06;;;;;;;695.40;645.40;;;15.80;11.40;;;;;;5012205;28;20623;-71
2022/11/02 09:22:31;;;;;;;676.83;629.27;;;15.40;11.80;;;;;;5011134;28;20271;-71
2022/11/02 09:24:57;;;;;;;555.47;515.77;;;15.20;12.80;;;;;;5012163;28;20553;-71
2022/11/02 09:27:26;;;;;;;623.53;577.40;;;15.50;12.20;;;;;;5012259;28;20211;-71
2022/11/02 09:29:51;;;;;;;737.20;681.17;;;15.40;12.60;;;;;;4993127;28;20226;-71
2022/11/02 09:32:17;;;;;;;653.00;607.77;;;15.80;12.30;;;;;;4998482;28;20887;-71
2022/11/02 09:34:42;;;;;;;443.93;410.13;;;15.80;11.20;;;;;;5012065;28;20275;-71
2022/11/02 09:37:10;;;;;;;908.33;837.03;;;16.00;11.70;;;;;;5012328;28;20186;-71
2022/11/02 09:39:36;;;;;;;547.03;507.33;;;16.30;11.80;;;;;;5020139;23;20782;-71
2022/11/02 09:42:14;;;;;;;727.07;673.17;;;16.70;10.70;;;;;;4992894;28;20490;-70
2022/11/02 09:44:48;;;;;;;189.43;175.57;;;16.50;9.70;;;;;;4992721;28;20564;-70
2022/11/02 09:47:15;;;;;;;689.07;637.80;;;16.80;10.90;;;;;;4992394;28;20573;-73
2022/11/02 09:49:43;;;;;;;681.87;630.83;;;17.10;10.10;;;;;;4992964;28;20435;-70
2022/11/02 09:52:17;;;;;;;565.00;525.50;;;17.30;10.30;;;;;;4993069;28;20404;-72
2022/11/02 09:54:53;;;;;;;658.43;608.10;;;17.00;10.00;;;;;;4993842;28;20412;-72
2022/11/02 09:57:30;;;;;;;771.80;714.47;;;16.90;9.70;;;;;;4993263;28;20457;-71
2022/11/02 09:59:56;;;;;;;494.50;457.37;;;16.70;10.60;;;;;;4993167;28;20458;-71
2022/11/02 10:02:41;;;;;;;631.30;585.90;;;16.50;10.50;;;;;;4992959;28;20443;-71
2022/11/02 10:05:16;;;;;;;529.47;492.47;;;16.70;10.70;;;;;;4993397;28;20979;-71
2022/11/02 10:08:06;;;;;;;674.73;627.73;;;16.30;10.60;;;;;;4993037;28;20768;-71
2022/11/02 10:11:12;;;;;;;788.03;729.23;;;16.10;10.90;;;;;;4991899;28;20448;-70
2022/11/02 10:13:58;;;;;;;752.13;695.27;;;16.50;10.40;;;;;;4991883;28;20512;-70
2022/11/02 10:16:37;;;;;;;692.03;641.87;;;16.30;9.50;;;;;;4990147;28;20920;-69
2022/11/02 10:19:11;;;;;;;624.00;577.37;;;16.00;10.50;;;;;;4990511;28;20451;-70
2022/11/02 10:21:38;;;;;;;464.90;430.23;;;15.80;11.40;;;;;;4985798;28;20806;-70
2022/11/02 10:24:29;;;;;;;737.07;683.40;;;15.60;11.30;;;;;;4992332;28;20533;-71
2022/11/02 10:26:59;;;;;;;716.43;663.23;;;15.80;11.40;;;;;;4991223;28;20427;-71
2022/11/02 10:29:45;;;;;;;802.23;745.17;;;15.90;10.60;;;;;;4991789;28;20475;-70
2022/11/02 10:32:13;;;;;;;658.33;609.77;;;16.10;11.10;;;;;;4990808;28;20439;-71
2022/11/02 10:34:40;;;;;;;702.93;650.93;;;15.90;10.90;;;;;;4991749;28;20506;-70
2022/11/02 10:37:16;;;;;;;700.70;649.43;;;15.70;11.60;;;;;;4992192;28;20420;-70
2022/11/02 10:39:48;;;;;;;525.90;487.63;;;15.80;11.50;;;;;;4991964;28;20458;-71
2022/11/02 10:42:39;;;;;;;459.23;423.37;;;15.90;10.40;;;;;;4995611;28;20783;-70
2022/11/02 10:45:29;;;;;;;818.20;754.20;;;16.10;10.30;;;;;;4995094;28;20456;-71
2022/11/02 10:48:28;;;;;;;569.33;525.83;;;16.30;11.00;;;;;;4995177;28;20416;-71
2022/11/02 10:51:11;;;;;;;617.97;571.20;;;16.40;9.60;;;;;;4994960;28;20431;-70
2022/11/02 10:53:41;;;;;;;593.10;547.33;;;16.30;10.00;;;;;;4995214;28;20855;-70
2022/11/02 10:56:22;;;;;;;727.93;673.50;;;16.20;9.70;;;;;;4993985;28;20424;-70
2022/11/02 10:59:02;;;;;;;467.93;431.30;;;16.60;9.70;;;;;;4996085;28;20478;-71
2022/11/02 11:01:30;;;;;;;608.57;563.90;;;16.40;10.00;;;;;;4995160;28;20828;-71
2022/11/02 11:04:19;;;;;;;717.30;664.70;;;16.70;9.80;;;;;;4994788;28;20451;-70
2022/11/02 11:06:45;;;;;;;596.00;552.57;;;16.60;9.50;;;;;;4975904;28;20416;-70
2022/11/02 11:09:19;;;;;;;669.57;619.00;;;16.40;9.60;;;;;;4975617;28;20433;-70
2022/11/02 11:12:04;;;;;;;608.37;561.23;;;16.60;9.80;;;;;;4974063;28;20412;-70
2022/11/02 11:14:55;;;;;;;528.60;489.30;;;16.70;9.80;;;;;;4979677;28;20431;-70
2022/11/02 11:17:27;;;;;;;407.77;377.03;;;16.40;9.60;;;;;;4995086;28;20423;-70
2022/11/02 11:19:57;;;;;;;558.30;518.00;;;16.40;9.60;;;;;;4995064;28;20494;-70
2022/11/02 11:22:23;;;;;;;414.33;383.97;;;16.70;9.20;;;;;;4993217;28;20731;-70
2022/11/02 11:24:48;;;;;;;761.43;706.90;;;16.70;9.80;;;;;;4995291;28;20538;-70
2022/11/02 11:27:21;;;;;;;710.70;657.70;;;16.50;9.70;;;;;;4994611;28;20235;-70
2022/11/02 11:29:51;;;;;;;630.90;585.00;;;16.50;9.70;;;;;;4995065;28;20208;-70
2022/11/02 11:32:28;;;;;;;564.80;516.97;;;16.40;9.60;;;;;;4993313;28;20474;-69
2022/11/02 11:35:06;;;;;;;598.73;554.50;;;16.30;9.40;;;;;;4995327;28;20474;-71
2022/11/02 11:37:32;;;;;;;428.37;396.33;;;16.40;9.10;;;;;;4993501;28;20427;-71
2022/11/02 11:40:14;;;;;;;211.07;195.10;;;16.40;9.10;;;;;;4994743;28;20458;-70
2022/11/02 11:42:42;;;;;;;623.43;573.40;;;16.30;9.90;;;;;;4994828;28;20431;-70
2022/11/02 11:45:19;;;;;;;500.87;466.13;;;16.30;9.60;;;;;;4994702;28;20459;-73
2022/11/02 11:47:50;;;;;;;672.77;623.57;;;16.10;9.40;;;;;;4997078;28;20414;-73
2022/11/02 11:50:17;;;;;;;311.27;286.93;;;16.20;9.60;;;;;;4995598;28;20832;-73
2022/11/02 11:52:43;;;;;;;701.83;650.17;;;16.00;9.40;;;;;;4993129;28;20419;-71
2022/11/02 11:55:19;;;;;;;647.50;599.63;;;15.90;9.30;;;;;;4992955;28;20442;-69
2022/11/02 11:57:45;;;;;;;569.53;528.43;;;15.90;8.70;;;;;;4994165;28;20433;-70
2022/11/02 12:00:27;;;;;;;520.50;483.47;;;15.80;9.00;;;;;;4993713;28;20538;-69
2022/11/02 12:03:09;;;;;;;604.80;560.53;;;15.60;9.10;;;;;;4993569;28;20191;-69
2022/11/02 12:06:01;;;;;;;614.77;569.63;;;15.50;9.60;;;;;;4993224;28;20513;-69
2022/11/02 12:08:36;;;;;;;666.47;617.33;;;15.40;10.00;;;;;;4972776;28;20910;-69
2022/11/02 12:11:36;;;;;;;473.97;437.27;;;15.30;9.20;;;;;;4973851;28;20450;-69
2022/11/02 12:14:33;;;;;;;590.60;546.90;;;15.10;10.50;;;;;;4973847;28;20413;-69
2022/11/02 12:17:13;;;;;;;562.50;522.50;;;14.80;10.30;;;;;;4974115;28;20444;-68
2022/11/02 12:20:16;;;;;;;623.63;578.67;;;14.70;10.00;;;;;;4973960;28;20440;-68
2022/11/02 12:22:49;;;;;;;649.03;601.47;;;14.70;10.80;;;;;;4973883;28;20766;-68
2022/11/02 12:25:26;;;;;;;625.87;579.13;;;14.60;11.00;;;;;;4973898;28;20971;-68
2022/11/02 12:27:57;;;;;;;605.27;559.80;;;14.60;11.20;;;;;;4973679;28;20448;-68
2022/11/02 12:30:32;;;;;;;671.40;620.77;;;14.80;11.30;;;;;;4973829;28;20906;-69
2022/11/02 12:33:16;;;;;;;578.67;534.97;;;14.90;11.00;;;;;;4972219;28;20429;-69
2022/11/02 12:36:06;;;;;;;697.83;646.23;;;15.00;10.40;;;;;;4973815;28;20421;-69
2022/11/02 12:38:46;;;;;;;671.47;622.00;;;14.90;10.50;;;;;;4973661;28;20823;-71
2022/11/02 12:41:37;;;;;;;609.07;566.17;;;14.90;11.00;;;;;;4973497;28;20487;-69
2022/11/02 12:44:26;;;;;;;634.50;588.50;;;14.80;10.50;;;;;;4973593;28;20419;-68